Terminal Aerodrome Forecast
Issued by NWS Wilmington, OH

Current Version | Previous Version | Graphics & Text | Print | Product List | Glossary On
Versions: 1 2 3 4 5 6 7 8 9 10 11 12 13 14
000
FTUS41 KILN 171700
TAFCMH
TAF
KCMH 171722Z 1718/1818 20010G16KT P6SM SCT250
     FM172200 19007KT P6SM BKN250
     FM180300 13004KT P6SM OVC250
     FM181400 21005KT P6SM BKN050
     FM181600 26008KT P6SM BKN050=

USA.gov is the U.S. government's official web portal to all federal, state and local government web resources and services.